Time;durP1;ratioP1;P1;durP2;ratioP2;P2;SDS_P1;SDS_P2;PMS_P1;PMS_P2;Temp;Humidity;BMP_temperature;BMP_pressure;BME280_temperature;BME280_humidity;BME280_pressure;Samples;Min_cycle;Max_cycle;Signal;HPM_P1;HPM_P2
2022/10/30 00:02:28;;;;;;;137.48;84.05;;;;;;;21.55;72.55;98958.38;4968670;28;20491;-67
2022/10/30 00:05:18;;;;;;;133.82;80.35;;;;;;;21.59;72.44;98962.22;4969729;28;20142;-67
2022/10/30 00:08:01;;;;;;;142.15;81.57;;;;;;;21.46;73.37;98954.63;4971382;28;20047;-67
2022/10/30 00:10:51;;;;;;;143.45;83.90;;;;;;;21.49;72.44;98962.22;4955776;28;20050;-67
2022/10/30 00:13:43;;;;;;;148.85;85.65;;;;;;;21.55;72.38;98965.75;4973064;28;20481;-67
2022/10/30 00:16:25;;;;;;;140.30;83.40;;;;;;;21.46;72.28;98958.16;4971361;28;20129;-67
2022/10/30 00:19:20;;;;;;;150.45;85.10;;;;;;;21.54;73.08;98962.22;4952942;28;20037;-67
2022/10/30 00:22:16;;;;;;;149.77;85.85;;;;;;;21.57;72.91;98964.41;4970370;28;20736;-67
2022/10/30 00:25:12;;;;;;;143.95;83.50;;;;;;;21.54;73.00;98964.16;4976268;28;20467;-67
2022/10/30 00:27:47;;;;;;;138.98;85.65;;;;;;;21.48;73.26;98966.88;4972906;28;20454;-67
2022/10/30 00:30:36;;;;;;;142.90;85.22;;;;;;;21.54;73.10;98973.16;4968710;28;20061;-67
2022/10/30 00:33:26;;;;;;;150.35;85.60;;;;;;;21.52;72.97;98974.53;4958956;28;20406;-67
2022/10/30 00:36:10;;;;;;;139.75;84.07;;;;;;;21.44;73.07;98967.75;4966700;28;20106;-68
2022/10/30 00:38:59;;;;;;;152.15;84.88;;;;;;;21.48;73.30;98977.00;4973604;28;20046;-66
2022/10/30 00:41:41;;;;;;;139.23;85.78;;;;;;;21.54;72.56;98978.59;4971106;28;20066;-66
2022/10/30 00:44:53;;;;;;;145.40;86.32;;;;;;;21.41;72.89;98977.25;4960306;28;20035;-67
2022/10/30 00:47:42;;;;;;;146.85;86.85;;;;;;;21.42;72.92;98978.06;4970110;28;20042;-69
2022/10/30 00:50:40;;;;;;;143.50;85.47;;;;;;;21.44;73.22;98981.38;4954262;28;20086;-68
2022/10/30 00:53:22;;;;;;;150.90;88.20;;;;;;;21.44;73.14;98978.66;4965356;28;20482;-66
2022/10/30 00:56:14;;;;;;;154.23;89.18;;;;;;;21.44;72.22;98982.19;4968200;28;20438;-66
2022/10/30 00:59:01;;;;;;;148.32;90.30;;;;;;;21.39;72.98;98984.09;4963114;28;20385;-67
2022/10/30 01:01:53;;;;;;;149.20;88.57;;;;;;;21.37;72.67;98986.28;4965416;28;20043;-67
2022/10/30 01:04:51;;;;;;;144.45;87.53;;;;;;;21.45;73.31;98981.09;4956925;28;20096;-69
2022/10/30 01:07:26;;;;;;;149.15;90.13;;;;;;;21.47;73.02;98986.28;4970703;28;20116;-68
2022/10/30 01:10:23;;;;;;;150.35;89.53;;;;;;;21.45;72.83;98993.94;4971309;28;20128;-69
2022/10/30 01:13:01;;;;;;;152.77;92.38;;;;;;;21.33;73.47;99002.41;4958575;28;20145;-67
2022/10/30 01:16:40;;;;;;;154.07;88.93;;;;;;;21.35;73.26;99002.13;4989907;28;20042;-67
2022/10/30 01:19:29;;;;;;;137.10;86.63;;;;;;;21.39;73.85;99000.47;4969425;28;20053;-67
2022/10/30 01:22:46;;;;;;;142.25;86.10;;;;;;;21.42;73.57;98999.91;4969044;28;20485;-67
2022/10/30 01:25:24;;;;;;;153.05;89.57;;;;;;;21.38;73.80;99001.56;4965765;28;20356;-68
2022/10/30 01:28:44;;;;;;;135.05;86.95;;;;;;;21.38;74.13;99015.22;4949633;28;20055;-68
2022/10/30 01:31:37;;;;;;;138.73;87.32;;;;;;;21.48;73.83;99016.03;4968123;28;20058;-69
2022/10/30 01:34:55;;;;;;;147.55;89.07;;;;;;;21.45;74.15;99013.03;4951351;28;20054;-67
2022/10/30 01:37:45;;;;;;;135.93;88.13;;;;;;;21.54;73.73;99011.38;4924336;28;20126;-67
2022/10/30 01:40:42;;;;;;;145.20;89.55;;;;;;;21.58;74.02;99015.19;4968075;28;20046;-66
2022/10/30 01:43:17;;;;;;;143.27;88.63;;;;;;;21.63;74.09;99020.63;4950746;28;20063;-67
2022/10/30 01:46:48;;;;;;;138.02;88.35;;;;;;;21.68;73.64;99026.06;4931798;28;20049;-66
2022/10/30 01:49:44;;;;;;;145.02;91.10;;;;;;;21.61;74.46;99024.72;4922281;29;20534;-68
2022/10/30 01:52:55;;;;;;;147.27;91.45;;;;;;;21.59;74.06;99027.75;4949970;28;20055;-66
2022/10/30 01:55:42;;;;;;;157.73;91.05;;;;;;;21.60;74.62;99026.63;4941643;28;20111;-66
2022/10/30 01:58:47;;;;;;;152.75;91.18;;;;;;;21.74;73.53;99034.25;4949298;28;20145;-67
2022/10/30 02:01:24;;;;;;;145.93;93.45;;;;;;;21.69;74.15;99038.63;4949628;28;20042;-66
2022/10/30 02:04:20;;;;;;;157.40;95.80;;;;;;;21.72;74.53;99030.97;4947500;28;20055;-67
2022/10/30 02:06:56;;;;;;;146.38;94.95;;;;;;;21.82;74.33;99036.38;4945555;29;20055;-68
2022/10/30 02:09:53;;;;;;;157.32;100.65;;;;;;;21.92;73.65;99035.50;4933706;28;20075;-68
2022/10/30 02:12:36;;;;;;;171.88;100.95;;;;;;;21.87;73.38;99023.50;4946944;28;20056;-68
2022/10/30 02:15:25;;;;;;;167.30;101.90;;;;;;;22.13;73.22;99034.31;4932528;29;20047;-68
2022/10/30 02:18:14;;;;;;;177.27;104.43;;;;;;;22.17;72.53;99031.84;4932685;29;20122;-67
2022/10/30 02:21:10;;;;;;;171.68;108.35;;;;;;;22.31;72.95;99029.31;4934820;28;20035;-67
2022/10/30 02:23:45;;;;;;;179.68;112.25;;;;;;;22.51;70.74;99036.56;4951783;28;20062;-67
2022/10/30 02:26:35;;;;;;;176.35;111.80;;;;;;;22.52;72.28;99039.00;4938984;28;20070;-68
2022/10/30 02:29:24;;;;;;;170.10;108.55;;;;;;;22.55;72.29;99040.38;4957177;28;20073;-68
2022/10/30 02:32:06;;;;;;;182.55;113.82;;;;;;;22.65;71.73;99048.50;4946298;29;20383;-67
2022/10/30 02:34:55;;;;;;;176.77;117.43;;;;;;;22.72;71.70;99043.53;4950420;29;20055;-68
2022/10/30 02:37:38;;;;;;;188.68;119.57;;;;;;;22.87;70.46;99054.34;4930001;29;20069;-67
2022/10/30 02:40:27;;;;;;;193.30;119.63;;;;;;;23.02;69.22;99055.28;4943714;28;20075;-68
2022/10/30 02:43:09;;;;;;;202.77;121.95;;;;;;;23.04;69.19;99058.59;4944054;28;20051;-67
2022/10/30 02:45:59;;;;;;;191.75;124.75;;;;;;;23.16;68.95;99061.78;4965856;28;20050;-68
2022/10/30 02:48:54;;;;;;;204.63;129.77;;;;;;;23.19;68.25;99063.91;4970699;28;20049;-67
2022/10/30 02:51:33;;;;;;;197.13;127.55;;;;;;;23.39;68.33;99071.13;4955055;28;20055;-67
2022/10/30 02:54:28;;;;;;;193.50;127.85;;;;;;;23.43;70.29;99072.19;4951982;28;20052;-67
2022/10/30 02:57:03;;;;;;;192.50;128.02;;;;;;;23.38;70.44;99074.16;4953304;28;20058;-67
2022/10/30 02:59:53;;;;;;;202.27;129.82;;;;;;;23.55;68.97;99082.72;4970956;28;20426;-67
2022/10/30 03:02:36;;;;;;;194.60;131.05;;;;;;;23.61;69.42;99083.50;4961124;28;20077;-67
2022/10/30 03:05:26;;;;;;;198.00;130.63;;;;;;;23.78;69.85;99083.03;4951614;28;20546;-67
2022/10/30 03:08:08;;;;;;;203.95;129.88;;;;;;;23.74;67.88;99088.28;4960355;28;20053;-67
2022/10/30 03:11:05;;;;;;;204.25;129.98;;;;;;;23.95;67.49;99091.63;4971121;28;20046;-68
2022/10/30 03:13:48;;;;;;;207.32;131.07;;;;;;;24.07;67.45;99080.22;4961556;28;20057;-68
2022/10/30 03:16:37;;;;;;;209.10;136.27;;;;;;;24.13;65.56;99081.81;4951735;28;20043;-67
2022/10/30 03:19:26;;;;;;;205.82;132.25;;;;;;;24.22;65.08;99084.69;4967289;28;20130;-67
2022/10/30 03:22:08;;;;;;;221.25;134.68;;;;;;;24.35;65.01;99091.38;4952951;28;20047;-67
2022/10/30 03:24:57;;;;;;;211.57;132.90;;;;;;;24.39;64.26;99085.00;4968635;28;20059;-66
2022/10/30 03:27:40;;;;;;;222.17;140.90;;;;;;;24.40;65.83;99091.28;4947225;28;20043;-67
2022/10/30 03:30:29;;;;;;;207.57;134.80;;;;;;;24.59;65.34;99100.38;4931998;29;20285;-67
2022/10/30 03:33:18;;;;;;;216.77;135.48;;;;;;;24.78;64.17;99092.16;4931789;28;20055;-67
2022/10/30 03:36:00;;;;;;;212.52;132.18;;;;;;;25.07;64.03;99104.00;4965544;28;20456;-67
2022/10/30 03:38:49;;;;;;;215.88;137.30;;;;;;;25.21;63.89;99102.13;4966811;28;20050;-67
2022/10/30 03:41:39;;;;;;;208.57;134.15;;;;;;;25.23;62.41;99108.19;4953098;28;20455;-67
2022/10/30 03:44:21;;;;;;;203.73;131.80;;;;;;;25.46;62.14;99100.88;4955382;28;20057;-67
2022/10/30 03:47:10;;;;;;;202.43;133.05;;;;;;;25.26;61.59;99101.25;4935757;28;20051;-67
2022/10/30 03:49:57;;;;;;;204.38;132.85;;;;;;;25.56;62.35;99108.13;4972193;28;20062;-67
2022/10/30 03:52:46;;;;;;;204.63;134.68;;;;;;;25.66;62.25;99102.47;4935312;29;20063;-67
2022/10/30 03:55:28;;;;;;;206.65;135.40;;;;;;;25.87;61.90;99107.53;4954308;28;20477;-67
2022/10/30 03:58:18;;;;;;;205.70;133.77;;;;;;;25.94;60.65;99116.22;4971326;28;20054;-67
2022/10/30 04:01:06;;;;;;;210.40;131.02;;;;;;;26.34;63.38;99119.25;4955132;28;20038;-67
2022/10/30 04:04:01;;;;;;;206.57;132.77;;;;;;;26.68;60.72;99112.47;4971236;28;20494;-67
2022/10/30 04:06:43;;;;;;;203.85;131.52;;;;;;;26.86;59.57;99113.41;4968539;28;20054;-67
2022/10/30 04:09:32;;;;;;;202.38;130.93;;;;;;;27.20;58.55;99112.03;4969310;28;20046;-67
2022/10/30 04:12:14;;;;;;;200.23;127.05;;;;;;;27.40;57.17;99116.22;4944945;28;20069;-67
2022/10/30 04:15:03;;;;;;;197.32;129.02;;;;;;;27.51;56.89;99107.34;4954776;28;20055;-67
2022/10/30 04:17:49;;;;;;;191.65;126.47;;;;;;;27.97;56.27;99101.72;4955992;28;20046;-68
2022/10/30 04:20:48;;;;;;;200.15;126.65;;;;;;;28.01;56.19;99102.72;4975581;28;20042;-68
2022/10/30 04:23:23;;;;;;;187.40;118.30;;;;;;;28.38;52.19;99100.53;4953928;28;20590;-68
2022/10/30 04:26:12;;;;;;;180.43;118.60;;;;;;;28.63;53.75;99094.22;4944866;28;20057;-69
2022/10/30 04:29:01;;;;;;;181.95;116.85;;;;;;;28.71;51.79;99103.66;4955052;28;20051;-68
2022/10/30 04:31:57;;;;;;;185.90;117.43;;;;;;;28.94;52.29;99112.56;4954728;28;20498;-68
2022/10/30 04:34:33;;;;;;;186.80;116.68;;;;;;;28.53;52.77;99113.88;4954072;28;20074;-68
2022/10/30 04:37:28;;;;;;;174.35;115.00;;;;;;;29.05;53.14;99108.31;4948438;28;20069;-69
2022/10/30 04:40:04;;;;;;;172.73;112.47;;;;;;;29.38;50.60;99102.25;4952013;28;20039;-68
2022/10/30 04:43:01;;;;;;;182.13;114.50;;;;;;;29.59;50.66;99104.31;4938459;29;20071;-69
2022/10/30 04:45:46;;;;;;;174.38;113.38;;;;;;;29.81;50.46;99101.34;4969373;28;20058;-68
2022/10/30 04:48:42;;;;;;;172.77;114.75;;;;;;;29.53;53.31;99100.13;4951076;29;20058;-69
2022/10/30 04:51:20;;;;;;;177.27;114.68;;;;;;;30.08;50.47;99098.41;4949990;28;20059;-68
2022/10/30 04:54:20;;;;;;;166.57;103.50;;;;;;;29.10;48.74;99101.81;4970911;28;20378;-68
2022/10/30 04:56:56;;;;;;;173.98;104.07;;;;;;;29.18;51.01;99100.22;4959626;28;20083;-68
2022/10/30 04:59:48;;;;;;;149.95;102.97;;;;;;;30.13;48.71;99104.56;4947275;28;20109;-68
2022/10/30 05:02:41;;;;;;;152.43;98.50;;;;;;;29.72;49.14;99102.50;4950142;29;20051;-68
2022/10/30 05:05:24;;;;;;;145.98;96.18;;;;;;;30.35;49.06;99102.69;4947352;28;20470;-68
2022/10/30 05:08:14;;;;;;;135.82;91.75;;;;;;;30.52;49.15;99102.56;4969666;28;20050;-68
2022/10/30 05:10:56;;;;;;;149.50;94.63;;;;;;;30.96;47.68;99093.91;4990378;28;20058;-69
2022/10/30 05:13:45;;;;;;;159.52;99.28;;;;;;;30.73;47.10;99090.66;4952212;28;20052;-68
2022/10/30 05:16:34;;;;;;;168.60;104.10;;;;;;;30.77;46.84;99088.81;4968729;28;20541;-68
2022/10/30 05:19:16;;;;;;;162.15;103.70;;;;;;;30.99;47.61;99082.94;4952071;28;20479;-67
2022/10/30 05:22:12;;;;;;;161.48;105.07;;;;;;;30.55;44.85;99089.97;4946964;28;20043;-68
2022/10/30 05:25:01;;;;;;;192.77;111.07;;;;;;;30.34;44.76;99089.97;4953030;28;20073;-68
2022/10/30 05:27:51;;;;;;;162.15;105.03;;;;;;;30.57;44.78;99094.06;4951280;28;20485;-67
2022/10/30 05:30:34;;;;;;;171.68;109.13;;;;;;;30.61;47.09;99089.44;4969261;28;20565;-67
2022/10/30 05:33:42;;;;;;;165.15;99.03;;;;;;;31.07;48.58;99088.72;4953942;28;20046;-69
2022/10/30 05:36:26;;;;;;;136.00;84.88;;;;;;;31.36;44.97;99085.81;4936450;28;20038;-68
2022/10/30 05:39:16;;;;;;;120.53;72.68;;;;;;;31.25;43.19;99081.84;4942632;28;20059;-67
2022/10/30 05:41:58;;;;;;;116.68;73.78;;;;;;;31.59;44.21;99077.88;4945738;28;20106;-67
2022/10/30 05:44:53;;;;;;;124.03;77.18;;;;;;;31.73;43.41;99077.53;4953578;28;20046;-66
2022/10/30 05:47:42;;;;;;;117.03;73.00;;;;;;;31.50;42.95;99074.41;4945931;28;20046;-66
2022/10/30 05:50:32;;;;;;;111.38;74.90;;;;;;;31.38;43.10;99077.94;4956505;28;20149;-65
2022/10/30 05:53:24;;;;;;;123.22;75.38;;;;;;;31.39;43.49;99065.72;4946069;28;20051;-65
2022/10/30 05:56:14;;;;;;;112.18;72.53;;;;;;;31.49;43.82;99061.72;4945516;28;20086;-65
2022/10/30 05:59:10;;;;;;;111.50;66.25;;;;;;;31.50;41.96;99068.06;4945866;28;20052;-65
2022/10/30 06:01:45;;;;;;;117.40;67.68;;;;;;;31.56;43.89;99061.91;4965817;28;20070;-65
2022/10/30 06:04:35;;;;;;;103.25;66.22;;;;;;;31.74;40.59;99062.53;4972385;28;20213;-65
2022/10/30 06:07:19;;;;;;;110.22;63.60;;;;;;;31.88;42.19;99062.16;4947571;28;20043;-65
2022/10/30 06:10:15;;;;;;;108.43;62.95;;;;;;;31.95;43.30;99051.28;4951730;28;20626;-65
2022/10/30 06:13:20;;;;;;;95.22;63.65;;;;;;;31.81;38.79;99056.38;4948598;28;20065;-65
2022/10/30 06:16:22;;;;;;;121.68;66.57;;;;;;;31.52;40.21;99043.56;4973940;28;20042;-66
2022/10/30 06:19:30;;;;;;;113.63;65.43;;;;;;;31.48;43.52;99042.63;4959665;28;20561;-67
2022/10/30 06:23:00;;;;;;;103.70;66.27;;;;;;;31.38;41.49;99041.09;4623498;28;10000083;-67
2022/10/30 06:25:48;;;;;;;102.35;66.70;;;;;;;31.65;41.65;99047.94;4961985;28;21087;-67
2022/10/30 06:28:46;;;;;;;117.25;70.97;;;;;;;31.51;41.30;99037.19;4967185;28;20046;-67
2022/10/30 06:31:36;;;;;;;128.52;77.57;;;;;;;31.63;41.37;99027.25;4966776;28;20058;-67
2022/10/30 06:34:19;;;;;;;136.82;78.80;;;;;;;31.70;42.52;99022.75;4942808;28;20057;-67
2022/10/30 06:37:08;;;;;;;131.43;86.50;;;;;;;31.36;41.61;99024.00;4961548;28;20049;-68
2022/10/30 06:39:51;;;;;;;141.73;86.73;;;;;;;31.60;40.20;99023.19;4972718;28;20042;-67
2022/10/30 06:42:59;;;;;;;148.27;85.53;;;;;;;31.47;45.48;99018.81;4979602;28;20056;-68
2022/10/30 06:45:51;;;;;;;;;;;;;;;31.93;44.35;99016.69;4956772;28;20744;-70
2022/10/30 06:48:42;;;;;;;116.00;74.95;;;;;;;31.55;41.64;99010.38;4953506;28;19926;-68
2022/10/30 06:51:25;;;;;;;131.52;83.57;;;;;;;31.65;43.07;99008.31;4950302;28;20057;-68
2022/10/30 06:54:14;;;;;;;124.82;82.25;;;;;;;31.80;42.36;99004.81;4969312;28;20054;-67
2022/10/30 06:57:19;;;;;;;128.57;76.72;;;;;;;31.90;43.75;98993.22;4942351;28;20046;-68
2022/10/30 07:00:32;;;;;;;139.85;84.38;;;;;;;31.82;38.25;98987.81;4976646;28;20035;-66
2022/10/30 07:03:44;;;;;;;136.20;84.63;;;;;;;31.77;42.78;98992.44;4616036;28;10000501;-66
2022/10/30 07:06:33;;;;;;;133.05;83.53;;;;;;;31.59;44.35;98982.75;4978576;28;20900;-67
2022/10/30 07:09:24;;;;;;;137.98;83.40;;;;;;;31.87;41.79;98970.91;4973237;28;20085;-64
2022/10/30 07:12:06;;;;;;;130.38;78.88;;;;;;;31.93;40.67;98973.13;4956309;28;20053;-67
2022/10/30 07:15:17;;;;;;;141.90;79.75;;;;;;;31.91;41.95;98966.28;4964840;28;20062;-66
2022/10/30 07:18:21;;;;;;;134.55;82.38;;;;;;;31.95;41.87;98961.66;4960094;28;20623;-67
2022/10/30 07:21:05;;;;;;;130.20;79.10;;;;;;;32.05;43.33;98960.41;4955395;28;20070;-66
2022/10/30 07:23:54;;;;;;;130.85;76.53;;;;;;;32.02;40.91;98956.34;4942727;28;20426;-66
2022/10/30 07:27:09;;;;;;;129.07;77.47;;;;;;;32.14;41.61;98942.44;4936331;28;20098;-68
2022/10/30 07:29:57;;;;;;;141.27;82.65;;;;;;;31.97;41.17;98948.25;4948537;28;20430;-65
2022/10/30 07:33:15;;;;;;;129.55;77.88;;;;;;;31.75;38.21;98944.81;4938433;28;20110;-66
2022/10/30 07:36:15;;;;;;;110.95;64.32;;;;;;;32.03;37.52;98934.97;4962693;28;20576;-66
2022/10/30 07:39:22;;;;;;;93.43;60.10;;;;;;;32.11;35.73;98929.25;4963399;28;20916;-65
2022/10/30 07:42:12;;;;;;;90.95;59.70;;;;;;;32.09;37.69;98926.00;4937053;28;20733;-66
2022/10/30 07:45:19;;;;;;;97.20;60.17;;;;;;;32.33;37.77;98921.50;4947069;28;20035;-66
2022/10/30 07:48:20;;;;;;;90.80;58.13;;;;;;;32.24;41.06;98918.09;4982080;28;20042;-66
2022/10/30 07:51:28;;;;;;;105.30;60.28;;;;;;;32.18;40.51;98912.78;4935826;28;20058;-66
2022/10/30 07:54:19;;;;;;;105.70;61.78;;;;;;;31.87;40.13;98915.41;4948648;28;20062;-66
2022/10/30 07:57:03;;;;;;;111.50;64.65;;;;;;;31.77;41.30;98909.19;4943862;28;20053;-63
2022/10/30 08:00:13;;;;;;;110.65;70.97;;;;;;;31.75;38.54;98897.63;4964402;28;21013;-70
2022/10/30 08:03:05;;;;;;;114.55;70.53;;;;;;;31.66;41.24;98899.72;4947954;28;20042;-70
2022/10/30 08:06:02;;;;;;;110.22;65.25;;;;;;;31.83;40.79;98889.53;4932994;28;20047;-73
2022/10/30 08:08:45;;;;;;;99.47;62.42;;;;;;;31.93;40.30;98894.56;4969248;28;20058;-73
2022/10/30 08:11:35;;;;;;;103.30;64.80;;;;;;;31.52;38.33;98893.75;4949320;28;20070;-71
2022/10/30 08:14:17;;;;;;;107.33;65.83;;;;;;;31.77;40.13;98883.41;4602413;28;10000302;-68
2022/10/30 08:17:09;;;;;;;101.38;64.03;;;;;;;31.78;41.08;98880.28;4967971;28;20047;-68
2022/10/30 08:19:52;;;;;;;97.70;63.17;;;;;;;31.66;43.22;98882.28;4960393;28;20051;-69
2022/10/30 08:22:53;;;;;;;111.93;66.32;;;;;;;31.57;40.50;98872.13;4947728;28;20038;-70
2022/10/30 08:25:30;;;;;;;111.45;65.60;;;;;;;31.73;39.91;98866.66;4944347;28;20110;-69
2022/10/30 08:28:19;;;;;;;117.03;63.97;;;;;;;31.94;40.62;98872.00;4941854;28;20054;-70
2022/10/30 08:31:16;;;;;;;108.43;62.10;;;;;;;31.70;41.72;98867.38;4950582;28;20066;-69
2022/10/30 08:34:10;;;;;;;117.82;64.25;;;;;;;31.66;43.46;98866.44;4951351;28;20112;-70
2022/10/30 08:37:01;;;;;;;93.57;60.35;;;;;;;31.68;42.33;98864.16;4951498;28;20057;-69
2022/10/30 08:39:43;;;;;;;95.43;57.13;;;;;;;31.71;40.33;98857.88;4980797;28;20133;-70
2022/10/30 08:42:46;;;;;;;96.50;54.55;;;;;;;31.75;40.19;98847.69;4952040;28;20057;-70
2022/10/30 08:45:29;;;;;;;;;;;;;;;31.82;38.55;98849.06;4967491;28;20866;-70
2022/10/30 08:48:22;;;;;;;91.40;53.55;;;;;;;31.82;37.57;98840.75;4968807;28;19925;-70
2022/10/30 08:51:18;;;;;;;89.93;50.70;;;;;;;31.85;37.97;98837.25;4960596;28;20060;-70
2022/10/30 08:53:53;;;;;;;96.97;48.85;;;;;;;31.75;36.74;98836.59;4947293;28;20061;-70
2022/10/30 08:56:48;;;;;;;76.90;48.58;;;;;;;32.00;36.53;98830.94;4964272;28;20055;-70
2022/10/30 08:59:24;;;;;;;73.95;47.08;;;;;;;31.85;36.68;98829.72;4948776;28;20141;-68
2022/10/30 09:02:19;;;;;;;83.15;45.95;;;;;;;31.84;36.45;98827.31;4965730;28;20493;-70
2022/10/30 09:05:19;;;;;;;77.35;45.60;;;;;;;31.53;38.04;98824.06;4966992;28;20082;-71
2022/10/30 09:08:34;;;;;;;74.15;47.58;;;;;;;31.88;37.49;98817.13;4925965;28;20055;-71
2022/10/30 09:11:36;;;;;;;91.57;46.67;;;;;;;31.73;36.16;98813.94;4950564;28;20047;-70
2022/10/30 09:14:31;;;;;;;69.97;45.67;;;;;;;31.83;36.86;98809.03;4946420;29;20055;-70
2022/10/30 09:17:08;;;;;;;71.70;42.53;;;;;;;31.62;36.72;98801.72;4946444;29;20725;-69
2022/10/30 09:19:57;;;;;;;;;;;;;;;31.71;37.24;98802.38;4925195;28;20051;-70
2022/10/30 09:22:47;;;;;;;65.55;41.33;;;;;;;31.68;36.82;98807.81;4949860;28;19925;-69
2022/10/30 09:25:42;;;;;;;71.20;43.13;;;;;;;31.68;37.88;98803.09;4979876;28;20097;-70
2022/10/30 09:28:51;;;;;;;68.55;41.97;;;;;;;31.64;35.76;98796.63;4949637;28;20042;-69
2022/10/30 09:31:46;;;;;;;65.97;40.60;;;;;;;31.55;36.34;98802.34;4981231;28;20508;-70
2022/10/30 09:34:31;;;;;;;70.82;39.70;;;;;;;31.67;35.36;98793.16;4942394;28;20053;-70
2022/10/30 09:37:27;;;;;;;65.28;35.30;;;;;;;31.70;33.86;98798.00;4964933;28;20042;-69
2022/10/30 09:40:56;;;;;;;53.17;34.25;;;;;;;31.56;36.54;98800.34;4939462;28;20111;-68
2022/10/30 09:44:17;;;;;;;57.20;34.22;;;;;;;31.59;34.24;98799.66;4948965;28;20046;-71
2022/10/30 09:47:10;;;;;;;56.67;32.58;;;;;;;31.46;33.64;98790.56;4906633;28;20061;-69
2022/10/30 09:50:12;;;;;;;61.28;30.85;;;;;;;31.42;32.85;98801.53;4941250;28;20050;-70
2022/10/30 09:53:11;;;;;;;61.50;35.60;;;;;;;31.55;34.37;98795.97;4942426;28;20054;-70
2022/10/30 09:56:09;;;;;;;61.15;37.83;;;;;;;31.42;35.42;98790.44;4960352;28;20137;-71
2022/10/30 09:59:02;;;;;;;66.18;37.78;;;;;;;31.23;36.99;98790.25;4959278;28;20295;-69
2022/10/30 10:01:59;;;;;;;62.83;39.78;;;;;;;31.41;35.07;98788.84;4956364;28;20119;-71
2022/10/30 10:04:47;;;;;;;66.07;39.78;;;;;;;31.38;36.53;98783.97;4944285;28;20117;-67
2022/10/30 10:08:01;;;;;;;58.63;39.40;;;;;;;31.44;35.79;98780.97;4947312;28;20166;-69
2022/10/30 10:11:11;;;;;;;67.10;38.70;;;;;;;31.21;37.06;98778.72;4956840;28;20113;-70
2022/10/30 10:14:08;;;;;;;64.95;38.17;;;;;;;31.17;37.17;98777.81;4930894;28;20055;-70
2022/10/30 10:16:53;;;;;;;55.72;37.22;;;;;;;31.17;34.06;98772.25;4942567;28;20482;-70
2022/10/30 10:19:50;;;;;;;65.97;36.20;;;;;;;31.15;36.22;98777.34;4946529;28;20062;-69
2022/10/30 10:22:55;;;;;;;58.92;38.40;;;;;;;30.88;37.20;98762.22;4976891;28;20038;-69
2022/10/30 10:25:51;;;;;;;63.78;36.90;;;;;;;30.79;39.10;98770.66;4980700;28;20390;-72
2022/10/30 10:28:58;;;;;;;67.88;40.35;;;;;;;30.82;37.25;98767.19;4963543;28;20050;-71
2022/10/30 10:32:10;;;;;;;59.20;37.97;;;;;;;30.63;39.21;98765.03;4981626;28;20058;-69
2022/10/30 10:35:17;;;;;;;69.25;40.40;;;;;;;30.50;39.08;98769.75;4983321;28;20061;-70
2022/10/30 10:38:17;;;;;;;71.95;40.00;;;;;;;30.39;42.47;98760.28;4979636;28;20537;-70
2022/10/30 10:41:10;;;;;;;64.63;41.28;;;;;;;30.28;41.97;98761.84;4981994;28;20050;-69
2022/10/30 10:44:15;;;;;;;65.28;41.33;;;;;;;30.21;42.79;98768.75;4982086;28;20046;-68
2022/10/30 10:47:31;;;;;;;70.82;42.38;;;;;;;30.18;42.47;98761.13;4979233;28;20042;-70
2022/10/30 10:50:46;;;;;;;63.90;41.42;;;;;;;29.98;43.93;98762.00;4964033;28;20057;-68
2022/10/30 10:53:34;;;;;;;72.05;42.03;;;;;;;29.79;45.68;98763.34;4964516;28;20553;-72
2022/10/30 10:56:31;;;;;;;75.10;44.22;;;;;;;29.80;44.87;98753.88;4961762;28;20042;-69
2022/10/30 10:59:26;;;;;;;69.63;44.13;;;;;;;29.69;45.81;98752.66;4982973;28;20050;-71
2022/10/30 11:02:30;;;;;;;63.97;42.28;;;;;;;29.55;46.07;98746.63;4984228;28;20057;-70
2022/10/30 11:05:37;;;;;;;78.53;45.63;;;;;;;29.47;47.16;98751.09;4963589;28;20082;-70
2022/10/30 11:08:31;;;;;;;77.07;44.10;;;;;;;29.31;48.65;98748.13;4963769;28;20054;-68
2022/10/30 11:11:21;;;;;;;75.63;44.67;;;;;;;29.30;48.04;98754.00;4964906;28;20055;-70
2022/10/30 11:14:24;;;;;;;75.57;44.60;;;;;;;29.18;48.71;98752.00;4979775;28;20038;-68
2022/10/30 11:17:53;;;;;;;76.88;45.97;;;;;;;29.12;48.43;98751.34;4989980;28;20073;-69
2022/10/30 11:21:02;;;;;;;77.38;45.33;;;;;;;29.03;48.78;98759.69;4982480;28;20077;-70
2022/10/30 11:23:52;;;;;;;85.40;46.60;;;;;;;28.96;48.92;98753.88;4964653;28;20062;-69
2022/10/30 11:26:41;;;;;;;83.65;47.05;;;;;;;28.87;49.95;98756.72;4962415;28;20133;-70
2022/10/30 11:29:27;;;;;;;84.75;49.38;;;;;;;28.76;48.83;98749.13;4964328;28;20050;-69
2022/10/30 11:32:25;;;;;;;82.70;46.75;;;;;;;28.68;48.63;98751.63;4965442;28;20050;-70
2022/10/30 11:35:07;;;;;;;81.90;46.92;;;;;;;28.64;49.15;98758.13;4975623;28;20050;-71
2022/10/30 11:38:17;;;;;;;75.05;45.90;;;;;;;28.52;50.90;98756.09;4984398;28;20611;-69
2022/10/30 11:41:01;;;;;;;76.00;47.47;;;;;;;28.46;50.30;98760.16;4984454;28;20141;-68
2022/10/30 11:43:52;;;;;;;94.18;50.50;;;;;;;28.39;51.10;98754.31;4965697;28;20515;-70
2022/10/30 11:46:35;;;;;;;86.72;49.45;;;;;;;28.27;51.48;98764.13;4984615;28;20061;-68
2022/10/30 11:49:57;;;;;;;95.07;48.72;;;;;;;28.13;53.18;98758.00;4967885;28;20082;-69
2022/10/30 11:53:01;;;;;;;86.38;48.90;;;;;;;28.07;53.04;98759.31;4965280;28;20061;-70
2022/10/30 11:55:45;;;;;;;86.90;48.35;;;;;;;27.99;52.44;98758.19;4980063;28;20046;-70
2022/10/30 11:58:37;;;;;;;79.57;47.63;;;;;;;27.94;53.99;98760.34;4620748;28;10000449;-71
2022/10/30 12:01:41;;;;;;;98.28;50.83;;;;;;;27.80;53.54;98758.56;4961063;28;20304;-70
2022/10/30 12:04:37;;;;;;;82.72;48.90;;;;;;;27.70;54.45;98761.63;4964815;28;20050;-71
2022/10/30 12:07:28;;;;;;;92.65;48.42;;;;;;;27.64;54.68;98758.22;4971310;28;20051;-72
2022/10/30 12:10:28;;;;;;;97.65;49.38;;;;;;;27.53;55.08;98763.28;4965844;28;20055;-71
2022/10/30 12:13:11;;;;;;;105.38;52.83;;;;;;;27.52;54.96;98766.38;4967589;28;20051;-68
2022/10/30 12:16:19;;;;;;;90.38;50.85;;;;;;;27.48;55.53;98760.69;4965428;28;20035;-70
2022/10/30 12:19:08;;;;;;;102.03;51.78;;;;;;;27.39;55.48;98762.63;4981389;28;20137;-70
2022/10/30 12:22:00;;;;;;;93.80;52.25;;;;;;;27.37;56.43;98759.38;4965976;28;20133;-69
2022/10/30 12:24:50;;;;;;;93.68;50.80;;;;;;;27.25;56.65;98764.75;4963643;28;20591;-70
2022/10/30 12:27:39;;;;;;;107.65;51.55;;;;;;;27.24;57.01;98774.09;4967870;28;20106;-68
2022/10/30 12:30:28;;;;;;;98.78;52.65;;;;;;;27.09;57.79;98776.19;4962570;28;20482;-69
2022/10/30 12:33:24;;;;;;;93.07;51.95;;;;;;;27.02;58.08;98775.88;4971425;28;20113;-69
2022/10/30 12:36:22;;;;;;;93.70;52.63;;;;;;;27.03;58.34;98776.66;4975065;28;20070;-69
2022/10/30 12:39:29;;;;;;;94.45;53.05;;;;;;;27.00;57.72;98780.88;4964547;28;20126;-70
2022/10/30 12:42:23;;;;;;;107.15;53.60;;;;;;;26.89;57.26;98776.81;4965636;28;20154;-68
2022/10/30 12:45:21;;;;;;;102.15;53.33;;;;;;;26.86;57.64;98783.75;4965207;28;20074;-68
2022/10/30 12:48:14;;;;;;;95.43;53.22;;;;;;;26.75;58.22;98783.25;4966609;28;20129;-69
2022/10/30 12:51:20;;;;;;;106.72;53.97;;;;;;;26.80;58.19;98784.25;4961849;28;20045;-70
2022/10/30 12:54:38;;;;;;;94.57;51.78;;;;;;;26.73;58.77;98791.03;4961494;28;20050;-69
2022/10/30 12:57:35;;;;;;;99.03;53.17;;;;;;;26.63;59.42;98798.75;4931306;28;20051;-68
2022/10/30 13:00:25;;;;;;;99.72;54.83;;;;;;;26.59;59.10;98806.00;4606106;28;9999762;-70
2022/10/30 13:03:37;;;;;;;100.95;52.83;;;;;;;26.58;59.31;98799.69;4942192;28;20529;-71
2022/10/30 13:06:33;;;;;;;91.70;53.88;;;;;;;26.53;59.35;98808.09;4963851;28;20617;-71
2022/10/30 13:09:25;;;;;;;102.07;53.55;;;;;;;26.53;60.14;98808.09;4935940;28;20134;-70